sensor_id;sensor_type;location;lat;lon;timestamp;temperature;humidity
17307;DHT22;8771;48.048;7.682;2023-05-02T00:03:59;15.80;67.50
17307;DHT22;8771;48.048;7.682;2023-05-02T00:09:03;15.80;67.60
17307;DHT22;8771;48.048;7.682;2023-05-02T00:14:05;15.70;67.70
17307;DHT22;8771;48.048;7.682;2023-05-02T00:19:07;15.60;67.80
17307;DHT22;8771;48.048;7.682;2023-05-02T00:24:10;15.50;68.70
17307;DHT22;8771;48.048;7.682;2023-05-02T00:29:12;15.40;68.10
17307;DHT22;8771;48.048;7.682;2023-05-02T00:34:14;15.30;68.20
17307;DHT22;8771;48.048;7.682;2023-05-02T00:39:17;15.20;68.30
17307;DHT22;8771;48.048;7.682;2023-05-02T00:44:19;15.10;68.50
17307;DHT22;8771;48.048;7.682;2023-05-02T00:49:22;15.00;68.60
17307;DHT22;8771;48.048;7.682;2023-05-02T00:54:25;15.00;68.70
17307;DHT22;8771;48.048;7.682;2023-05-02T00:59:27;15.00;68.70
17307;DHT22;8771;48.048;7.682;2023-05-02T01:04:39;15.00;68.50
17307;DHT22;8771;48.048;7.682;2023-05-02T01:09:56;15.00;68.50
17307;DHT22;8771;48.048;7.682;2023-05-02T01:15:05;15.00;68.40
17307;DHT22;8771;48.048;7.682;2023-05-02T01:20:12;15.00;68.30
17307;DHT22;8771;48.048;7.682;2023-05-02T01:25:24;15.00;68.40
17307;DHT22;8771;48.048;7.682;2023-05-02T01:30:32;14.90;68.50
17307;DHT22;8771;48.048;7.682;2023-05-02T01:35:35;14.90;68.50
17307;DHT22;8771;48.048;7.682;2023-05-02T01:40:38;14.90;68.50
17307;DHT22;8771;48.048;7.682;2023-05-02T01:45:44;14.90;68.70
17307;DHT22;8771;48.048;7.682;2023-05-02T01:50:50;14.80;68.70
17307;DHT22;8771;48.048;7.682;2023-05-02T01:55:53;14.80;68.70
17307;DHT22;8771;48.048;7.682;2023-05-02T02:00:58;14.80;68.70
17307;DHT22;8771;48.048;7.682;2023-05-02T02:06:02;14.70;68.80
17307;DHT22;8771;48.048;7.682;2023-05-02T02:11:09;14.70;69.00
17307;DHT22;8771;48.048;7.682;2023-05-02T02:16:20;14.60;69.00
17307;DHT22;8771;48.048;7.682;2023-05-02T02:21:25;14.60;69.10
17307;DHT22;8771;48.048;7.682;2023-05-02T02:26:28;14.50;69.20
17307;DHT22;8771;48.048;7.682;2023-05-02T02:31:32;14.40;69.30
17307;DHT22;8771;48.048;7.682;2023-05-02T02:36:39;14.40;69.30
17307;DHT22;8771;48.048;7.682;2023-05-02T02:41:50;14.30;69.30
17307;DHT22;8771;48.048;7.682;2023-05-02T02:47:06;14.20;69.50
17307;DHT22;8771;48.048;7.682;2023-05-02T02:52:16;14.10;70.30
17307;DHT22;8771;48.048;7.682;2023-05-02T02:57:26;14.10;69.60
17307;DHT22;8771;48.048;7.682;2023-05-02T03:02:31;13.90;69.60
17307;DHT22;8771;48.048;7.682;2023-05-02T03:07:35;13.90;69.90
17307;DHT22;8771;48.048;7.682;2023-05-02T03:12:37;13.70;70.00
17307;DHT22;8771;48.048;7.682;2023-05-02T03:17:42;13.60;70.10
17307;DHT22;8771;48.048;7.682;2023-05-02T03:22:44;13.50;70.20
17307;DHT22;8771;48.048;7.682;2023-05-02T03:27:46;13.40;70.30
17307;DHT22;8771;48.048;7.682;2023-05-02T03:32:50;13.40;70.30
17307;DHT22;8771;48.048;7.682;2023-05-02T03:37:52;13.30;70.30
17307;DHT22;8771;48.048;7.682;2023-05-02T03:42:54;13.30;70.30
17307;DHT22;8771;48.048;7.682;2023-05-02T03:47:58;13.30;70.30
17307;DHT22;8771;48.048;7.682;2023-05-02T03:53:00;13.30;70.30
17307;DHT22;8771;48.048;7.682;2023-05-02T03:58:02;13.30;70.20
17307;DHT22;8771;48.048;7.682;2023-05-02T04:03:06;13.30;70.10
17307;DHT22;8771;48.048;7.682;2023-05-02T04:08:08;13.40;70.00
17307;DHT22;8771;48.048;7.682;2023-05-02T04:13:10;13.40;69.90
17307;DHT22;8771;48.048;7.682;2023-05-02T04:18:14;13.40;70.00
17307;DHT22;8771;48.048;7.682;2023-05-02T04:23:16;13.40;69.90
17307;DHT22;8771;48.048;7.682;2023-05-02T04:28:18;13.40;69.90
17307;DHT22;8771;48.048;7.682;2023-05-02T04:33:23;13.40;69.90
17307;DHT22;8771;48.048;7.682;2023-05-02T04:38:25;13.50;69.90
17307;DHT22;8771;48.048;7.682;2023-05-02T04:43:27;13.50;69.90
17307;DHT22;8771;48.048;7.682;2023-05-02T04:48:31;13.50;69.90
17307;DHT22;8771;48.048;7.682;2023-05-02T04:53:33;13.40;70.80
17307;DHT22;8771;48.048;7.682;2023-05-02T04:58:35;13.40;70.00
17307;DHT22;8771;48.048;7.682;2023-05-02T05:03:38;13.30;70.20
17307;DHT22;8771;48.048;7.682;2023-05-02T05:08:41;13.40;70.30
17307;DHT22;8771;48.048;7.682;2023-05-02T05:13:45;13.40;70.30
17307;DHT22;8771;48.048;7.682;2023-05-02T05:18:48;13.50;70.20
17307;DHT22;8771;48.048;7.682;2023-05-02T05:23:50;13.70;70.10
17307;DHT22;8771;48.048;7.682;2023-05-02T05:28:52;13.80;69.80
17307;DHT22;8771;48.048;7.682;2023-05-02T05:33:56;14.10;69.50
17307;DHT22;8771;48.048;7.682;2023-05-02T05:38:58;14.30;69.20
17307;DHT22;8771;48.048;7.682;2023-05-02T05:44:00;14.50;68.90
17307;DHT22;8771;48.048;7.682;2023-05-02T05:49:03;14.60;68.70
17307;DHT22;8771;48.048;7.682;2023-05-02T05:54:06;14.80;68.60
17307;DHT22;8771;48.048;7.682;2023-05-02T05:59:08;14.90;68.50
17307;DHT22;8771;48.048;7.682;2023-05-02T06:04:12;14.90;68.50
17307;DHT22;8771;48.048;7.682;2023-05-02T06:09:14;15.00;68.70
17307;DHT22;8771;48.048;7.682;2023-05-02T06:14:17;15.00;68.60
17307;DHT22;8771;48.048;7.682;2023-05-02T06:19:20;15.30;68.50
17307;DHT22;8771;48.048;7.682;2023-05-02T06:24:22;15.60;68.20
17307;DHT22;8771;48.048;7.682;2023-05-02T06:29:24;15.90;67.80
17307;DHT22;8771;48.048;7.682;2023-05-02T06:34:30;16.20;67.40
17307;DHT22;8771;48.048;7.682;2023-05-02T06:39:32;16.50;67.10
17307;DHT22;8771;48.048;7.682;2023-05-02T06:44:34;16.70;67.10
17307;DHT22;8771;48.048;7.682;2023-05-02T06:49:38;17.00;66.80
17307;DHT22;8771;48.048;7.682;2023-05-02T06:54:40;17.20;66.60
17307;DHT22;8771;48.048;7.682;2023-05-02T06:59:42;17.30;66.50
17307;DHT22;8771;48.048;7.682;2023-05-02T07:04:45;17.30;66.60
17307;DHT22;8771;48.048;7.682;2023-05-02T07:09:48;17.60;66.60
17307;DHT22;8771;48.048;7.682;2023-05-02T07:14:51;17.80;66.30
17307;DHT22;8771;48.048;7.682;2023-05-02T07:19:54;18.20;66.00
17307;DHT22;8771;48.048;7.682;2023-05-02T07:24:57;18.40;65.50
17307;DHT22;8771;48.048;7.682;2023-05-02T07:29:59;18.50;65.70
17307;DHT22;8771;48.048;7.682;2023-05-02T07:35:03;18.70;65.60
17307;DHT22;8771;48.048;7.682;2023-05-02T07:40:07;18.70;65.50
17307;DHT22;8771;48.048;7.682;2023-05-02T07:45:10;18.50;66.00
17307;DHT22;8771;48.048;7.682;2023-05-02T07:50:13;18.60;66.10
17307;DHT22;8771;48.048;7.682;2023-05-02T07:55:15;18.50;66.10
17307;DHT22;8771;48.048;7.682;2023-05-02T08:00:18;18.30;66.40
17307;DHT22;8771;48.048;7.682;2023-05-02T08:05:22;18.20;66.60
17307;DHT22;8771;48.048;7.682;2023-05-02T08:10:24;18.10;66.70
17307;DHT22;8771;48.048;7.682;2023-05-02T08:15:27;18.10;66.60
17307;DHT22;8771;48.048;7.682;2023-05-02T08:20:31;18.20;66.60
17307;DHT22;8771;48.048;7.682;2023-05-02T08:25:34;18.20;66.40
17307;DHT22;8771;48.048;7.682;2023-05-02T08:30:36;18.20;66.40
17307;DHT22;8771;48.048;7.682;2023-05-02T08:35:40;18.30;66.60
17307;DHT22;8771;48.048;7.682;2023-05-02T08:40:43;18.40;66.20
17307;DHT22;8771;48.048;7.682;2023-05-02T08:45:45;18.50;66.10
17307;DHT22;8771;48.048;7.682;2023-05-02T08:50:51;18.60;66.10
17307;DHT22;8771;48.048;7.682;2023-05-02T08:55:54;18.60;66.10
17307;DHT22;8771;48.048;7.682;2023-05-02T09:01:00;18.80;65.90
17307;DHT22;8771;48.048;7.682;2023-05-02T09:06:07;19.00;65.80
17307;DHT22;8771;48.048;7.682;2023-05-02T09:11:11;19.10;65.70
17307;DHT22;8771;48.048;7.682;2023-05-02T09:16:15;19.30;65.50
17307;DHT22;8771;48.048;7.682;2023-05-02T09:21:21;19.30;65.50
17307;DHT22;8771;48.048;7.682;2023-05-02T09:26:24;19.30;65.70
17307;DHT22;8771;48.048;7.682;2023-05-02T09:31:29;19.40;65.80
17307;DHT22;8771;48.048;7.682;2023-05-02T09:36:40;19.50;65.80
17307;DHT22;8771;48.048;7.682;2023-05-02T09:41:44;19.50;65.80
17307;DHT22;8771;48.048;7.682;2023-05-02T09:46:47;19.50;65.80
17307;DHT22;8771;48.048;7.682;2023-05-02T09:52:09;19.80;65.70
17307;DHT22;8771;48.048;7.682;2023-05-02T09:57:11;20.20;65.20
17307;DHT22;8771;48.048;7.682;2023-05-02T10:02:14;20.40;64.80
17307;DHT22;8771;48.048;7.682;2023-05-02T10:07:17;20.50;64.70
17307;DHT22;8771;48.048;7.682;2023-05-02T10:12:22;20.50;64.90
17307;DHT22;8771;48.048;7.682;2023-05-02T10:17:30;20.30;65.10
17307;DHT22;8771;48.048;7.682;2023-05-02T10:22:34;20.20;65.20
17307;DHT22;8771;48.048;7.682;2023-05-02T10:27:38;20.30;65.20
17307;DHT22;8771;48.048;7.682;2023-05-02T10:32:42;20.40;64.90
17307;DHT22;8771;48.048;7.682;2023-05-02T10:37:49;20.70;64.70
17307;DHT22;8771;48.048;7.682;2023-05-02T10:42:52;20.90;64.40
17307;DHT22;8771;48.048;7.682;2023-05-02T10:48:12;21.00;64.30
17307;DHT22;8771;48.048;7.682;2023-05-02T10:53:27;21.10;64.10
17307;DHT22;8771;48.048;7.682;2023-05-02T10:58:30;21.00;64.10
17307;DHT22;8771;48.048;7.682;2023-05-02T11:03:54;21.00;64.20
17307;DHT22;8771;48.048;7.682;2023-05-02T11:09:32;21.00;64.20
17307;DHT22;8771;48.048;7.682;2023-05-02T11:14:44;20.90;64.40
17307;DHT22;8771;48.048;7.682;2023-05-02T11:20:23;20.60;64.50
17307;DHT22;8771;48.048;7.682;2023-05-02T11:25:40;20.50;64.70
17307;DHT22;8771;48.048;7.682;2023-05-02T11:30:44;20.60;64.50
17307;DHT22;8771;48.048;7.682;2023-05-02T11:35:48;20.80;64.10
17307;DHT22;8771;48.048;7.682;2023-05-02T11:40:57;20.80;64.00
17307;DHT22;8771;48.048;7.682;2023-05-02T11:46:00;21.00;63.90
17307;DHT22;8771;48.048;7.682;2023-05-02T11:51:05;21.00;63.50
17307;DHT22;8771;48.048;7.682;2023-05-02T11:56:09;20.80;63.90
17307;DHT22;8771;48.048;7.682;2023-05-02T12:01:12;20.60;64.20
17307;DHT22;8771;48.048;7.682;2023-05-02T12:06:15;20.50;64.50
17307;DHT22;8771;48.048;7.682;2023-05-02T12:11:22;20.50;64.40
17307;DHT22;8771;48.048;7.682;2023-05-02T12:16:25;20.30;64.70
17307;DHT22;8771;48.048;7.682;2023-05-02T12:21:28;20.20;64.60
17307;DHT22;8771;48.048;7.682;2023-05-02T12:26:34;20.20;64.60
17307;DHT22;8771;48.048;7.682;2023-05-02T12:31:37;20.20;64.50
17307;DHT22;8771;48.048;7.682;2023-05-02T12:36:43;20.30;64.10
17307;DHT22;8771;48.048;7.682;2023-05-02T12:41:47;20.40;63.90
17307;DHT22;8771;48.048;7.682;2023-05-02T12:46:59;20.40;63.80
17307;DHT22;8771;48.048;7.682;2023-05-02T12:52:01;20.50;63.70
17307;DHT22;8771;48.048;7.682;2023-05-02T12:57:05;20.60;63.50
17307;DHT22;8771;48.048;7.682;2023-05-02T13:02:08;20.80;64.10
17307;DHT22;8771;48.048;7.682;2023-05-02T13:07:11;20.80;63.20
17307;DHT22;8771;48.048;7.682;2023-05-02T13:12:14;20.80;63.20
17307;DHT22;8771;48.048;7.682;2023-05-02T13:17:18;21.00;63.10
17307;DHT22;8771;48.048;7.682;2023-05-02T13:22:21;21.00;62.90
17307;DHT22;8771;48.048;7.682;2023-05-02T13:27:27;21.10;63.00
17307;DHT22;8771;48.048;7.682;2023-05-02T13:32:29;21.00;62.90
17307;DHT22;8771;48.048;7.682;2023-05-02T13:37:31;21.00;63.00
17307;DHT22;8771;48.048;7.682;2023-05-02T13:42:34;21.10;63.00
17307;DHT22;8771;48.048;7.682;2023-05-02T13:47:36;21.20;62.90
17307;DHT22;8771;48.048;7.682;2023-05-02T13:52:38;21.30;62.60
17307;DHT22;8771;48.048;7.682;2023-05-02T13:57:43;21.40;62.60
17307;DHT22;8771;48.048;7.682;2023-05-02T14:02:46;21.40;62.50
17307;DHT22;8771;48.048;7.682;2023-05-02T14:07:48;21.50;62.40
17307;DHT22;8771;48.048;7.682;2023-05-02T14:12:52;21.50;62.40
17307;DHT22;8771;48.048;7.682;2023-05-02T14:17:54;21.40;62.40
17307;DHT22;8771;48.048;7.682;2023-05-02T14:22:56;21.40;62.50
17307;DHT22;8771;48.048;7.682;2023-05-02T14:28:00;21.20;62.50
17307;DHT22;8771;48.048;7.682;2023-05-02T14:33:03;21.00;62.90
17307;DHT22;8771;48.048;7.682;2023-05-02T14:38:05;21.00;62.90
17307;DHT22;8771;48.048;7.682;2023-05-02T14:43:10;21.10;62.80
17307;DHT22;8771;48.048;7.682;2023-05-02T14:48:13;20.90;62.80
17307;DHT22;8771;48.048;7.682;2023-05-02T14:53:16;20.80;63.10
17307;DHT22;8771;48.048;7.682;2023-05-02T14:58:20;20.80;63.00
17307;DHT22;8771;48.048;7.682;2023-05-02T15:03:23;20.80;62.90
17307;DHT22;8771;48.048;7.682;2023-05-02T15:08:25;20.80;62.90
17307;DHT22;8771;48.048;7.682;2023-05-02T15:13:30;20.70;62.80
17307;DHT22;8771;48.048;7.682;2023-05-02T15:18:32;20.50;63.00
17307;DHT22;8771;48.048;7.682;2023-05-02T15:23:35;20.40;63.20
17307;DHT22;8771;48.048;7.682;2023-05-02T15:28:39;20.20;63.20
17307;DHT22;8771;48.048;7.682;2023-05-02T15:33:41;20.20;63.30
17307;DHT22;8771;48.048;7.682;2023-05-02T15:38:44;20.10;63.30
17307;DHT22;8771;48.048;7.682;2023-05-02T15:43:47;20.10;63.20
17307;DHT22;8771;48.048;7.682;2023-05-02T15:48:50;20.10;63.10
17307;DHT22;8771;48.048;7.682;2023-05-02T15:53:53;20.10;63.10
17307;DHT22;8771;48.048;7.682;2023-05-02T15:58:56;20.10;63.10
17307;DHT22;8771;48.048;7.682;2023-05-02T16:03:59;20.00;63.10
17307;DHT22;8771;48.048;7.682;2023-05-02T16:09:01;19.80;64.00
17307;DHT22;8771;48.048;7.682;2023-05-02T16:14:05;19.70;63.40
17307;DHT22;8771;48.048;7.682;2023-05-02T16:19:07;19.60;64.20
17307;DHT22;8771;48.048;7.682;2023-05-02T16:24:12;19.60;63.40
17307;DHT22;8771;48.048;7.682;2023-05-02T16:29:16;19.60;63.50
17307;DHT22;8771;48.048;7.682;2023-05-02T16:34:18;19.50;63.50
17307;DHT22;8771;48.048;7.682;2023-05-02T16:39:20;19.40;63.50
17307;DHT22;8771;48.048;7.682;2023-05-02T16:44:24;19.40;63.50
17307;DHT22;8771;48.048;7.682;2023-05-02T16:49:26;19.30;63.60
17307;DHT22;8771;48.048;7.682;2023-05-02T16:54:29;19.30;63.60
17307;DHT22;8771;48.048;7.682;2023-05-02T16:59:32;19.30;63.60
17307;DHT22;8771;48.048;7.682;2023-05-02T17:04:35;19.20;63.60
17307;DHT22;8771;48.048;7.682;2023-05-02T17:09:38;19.10;63.80
17307;DHT22;8771;48.048;7.682;2023-05-02T17:14:42;19.00;63.90
17307;DHT22;8771;48.048;7.682;2023-05-02T17:19:45;18.90;63.90
17307;DHT22;8771;48.048;7.682;2023-05-02T17:24:49;18.90;63.90
17307;DHT22;8771;48.048;7.682;2023-05-02T17:29:55;18.80;64.00
17307;DHT22;8771;48.048;7.682;2023-05-02T17:34:58;18.70;64.10
17307;DHT22;8771;48.048;7.682;2023-05-02T17:40:00;18.70;64.20
17307;DHT22;8771;48.048;7.682;2023-05-02T17:45:08;18.50;64.30
17307;DHT22;8771;48.048;7.682;2023-05-02T17:50:11;18.40;64.40
17307;DHT22;8771;48.048;7.682;2023-05-02T17:55:14;18.30;64.50
17307;DHT22;8771;48.048;7.682;2023-05-02T18:00:19;18.20;64.60
17307;DHT22;8771;48.048;7.682;2023-05-02T18:05:21;18.00;64.60
17307;DHT22;8771;48.048;7.682;2023-05-02T18:10:24;17.90;64.70
17307;DHT22;8771;48.048;7.682;2023-05-02T18:15:28;17.80;64.70
17307;DHT22;8771;48.048;7.682;2023-05-02T18:20:31;17.70;64.80
17307;DHT22;8771;48.048;7.682;2023-05-02T18:25:38;17.60;64.80
17307;DHT22;8771;48.048;7.682;2023-05-02T18:30:41;17.60;64.90
17307;DHT22;8771;48.048;7.682;2023-05-02T18:40:48;17.40;64.40
17307;DHT22;8771;48.048;7.682;2023-05-02T18:45:51;17.30;65.00
17307;DHT22;8771;48.048;7.682;2023-05-02T18:50:54;17.20;65.10
17307;DHT22;8771;48.048;7.682;2023-05-02T18:55:57;17.10;65.10
17307;DHT22;8771;48.048;7.682;2023-05-02T19:01:10;17.00;65.30
17307;DHT22;8771;48.048;7.682;2023-05-02T19:06:13;16.90;65.30
17307;DHT22;8771;48.048;7.682;2023-05-02T19:11:17;16.80;65.30
17307;DHT22;8771;48.048;7.682;2023-05-02T19:16:22;16.80;65.40
17307;DHT22;8771;48.048;7.682;2023-05-02T19:21:25;16.80;65.40
17307;DHT22;8771;48.048;7.682;2023-05-02T19:26:28;16.70;65.40
17307;DHT22;8771;48.048;7.682;2023-05-02T19:31:32;16.70;65.50
17307;DHT22;8771;48.048;7.682;2023-05-02T19:36:34;16.60;65.60
17307;DHT22;8771;48.048;7.682;2023-05-02T19:41:37;16.50;65.60
17307;DHT22;8771;48.048;7.682;2023-05-02T19:46:41;16.50;65.80
17307;DHT22;8771;48.048;7.682;2023-05-02T19:51:43;16.50;65.80
17307;DHT22;8771;48.048;7.682;2023-05-02T19:56:46;16.40;65.70
17307;DHT22;8771;48.048;7.682;2023-05-02T20:01:50;16.40;65.80
17307;DHT22;8771;48.048;7.682;2023-05-02T20:06:52;16.30;65.80
17307;DHT22;8771;48.048;7.682;2023-05-02T20:11:55;16.30;66.00
17307;DHT22;8771;48.048;7.682;2023-05-02T20:17:01;16.20;66.00
17307;DHT22;8771;48.048;7.682;2023-05-02T20:22:05;16.10;66.10
17307;DHT22;8771;48.048;7.682;2023-05-02T20:27:07;16.10;66.10
17307;DHT22;8771;48.048;7.682;2023-05-02T20:32:11;16.10;66.20
17307;DHT22;8771;48.048;7.682;2023-05-02T20:37:14;16.00;66.10
17307;DHT22;8771;48.048;7.682;2023-05-02T20:42:18;15.90;66.20
17307;DHT22;8771;48.048;7.682;2023-05-02T20:47:27;15.90;66.40
17307;DHT22;8771;48.048;7.682;2023-05-02T20:52:30;15.80;66.40
17307;DHT22;8771;48.048;7.682;2023-05-02T20:57:32;15.70;67.20
17307;DHT22;8771;48.048;7.682;2023-05-02T21:02:36;15.60;66.50
17307;DHT22;8771;48.048;7.682;2023-05-02T21:07:39;15.50;66.50
17307;DHT22;8771;48.048;7.682;2023-05-02T21:12:41;15.40;66.70
17307;DHT22;8771;48.048;7.682;2023-05-02T21:17:45;15.20;66.80
17307;DHT22;8771;48.048;7.682;2023-05-02T21:22:48;15.10;66.90
17307;DHT22;8771;48.048;7.682;2023-05-02T21:27:51;15.00;67.10
17307;DHT22;8771;48.048;7.682;2023-05-02T21:32:54;14.90;67.10
17307;DHT22;8771;48.048;7.682;2023-05-02T21:37:57;14.80;67.90
17307;DHT22;8771;48.048;7.682;2023-05-02T21:43:00;14.70;67.30
17307;DHT22;8771;48.048;7.682;2023-05-02T21:48:04;14.60;67.40
17307;DHT22;8771;48.048;7.682;2023-05-02T21:53:07;14.60;67.60
17307;DHT22;8771;48.048;7.682;2023-05-02T21:58:10;14.50;67.50
17307;DHT22;8771;48.048;7.682;2023-05-02T22:03:14;14.40;67.50
17307;DHT22;8771;48.048;7.682;2023-05-02T22:08:17;14.30;67.50
17307;DHT22;8771;48.048;7.682;2023-05-02T22:13:20;14.30;67.70
17307;DHT22;8771;48.048;7.682;2023-05-02T22:18:26;14.20;67.80
17307;DHT22;8771;48.048;7.682;2023-05-02T22:23:28;14.00;67.90
17307;DHT22;8771;48.048;7.682;2023-05-02T22:28:31;14.00;68.00
17307;DHT22;8771;48.048;7.682;2023-05-02T22:33:34;13.90;68.00
17307;DHT22;8771;48.048;7.682;2023-05-02T22:38:36;13.90;68.00
17307;DHT22;8771;48.048;7.682;2023-05-02T22:43:40;13.80;68.00
17307;DHT22;8771;48.048;7.682;2023-05-02T22:48:43;13.70;68.00
17307;DHT22;8771;48.048;7.682;2023-05-02T22:53:46;13.70;68.10
17307;DHT22;8771;48.048;7.682;2023-05-02T22:58:49;13.60;68.10
17307;DHT22;8771;48.048;7.682;2023-05-02T23:03:52;13.50;68.20
17307;DHT22;8771;48.048;7.682;2023-05-02T23:08:54;13.40;68.20
17307;DHT22;8771;48.048;7.682;2023-05-02T23:13:57;13.30;68.30
17307;DHT22;8771;48.048;7.682;2023-05-02T23:19:00;13.20;68.20
17307;DHT22;8771;48.048;7.682;2023-05-02T23:24:03;13.20;68.30
17307;DHT22;8771;48.048;7.682;2023-05-02T23:29:05;13.10;68.30
17307;DHT22;8771;48.048;7.682;2023-05-02T23:34:10;13.00;68.40
17307;DHT22;8771;48.048;7.682;2023-05-02T23:39:12;12.90;68.50
17307;DHT22;8771;48.048;7.682;2023-05-02T23:44:15;12.90;68.50
17307;DHT22;8771;48.048;7.682;2023-05-02T23:49:20;12.90;68.50
17307;DHT22;8771;48.048;7.682;2023-05-02T23:54:22;12.80;68.50
17307;DHT22;8771;48.048;7.682;2023-05-02T23:59:24;12.80;68.50
